Time;durP1;ratioP1;P1;durP2;ratioP2;P2;SDS_P1;SDS_P2;PMS_P1;PMS_P2;Temp;Humidity;BMP_temperature;BMP_pressure;BME280_temperature;BME280_humidity;BME280_pressure;Samples;Min_cycle;Max_cycle;Signal;HPM_P1;HPM_P2
2023/08/23 00:02:23;;;;;;;113.40;58.55;;;20.70;88.80;;;;;;4955037;28;89667;-87
2023/08/23 00:04:52;;;;;;;114.15;58.95;;;20.70;89.20;;;;;;4928232;28;89292;-87
2023/08/23 00:07:17;;;;;;;111.57;57.72;;;20.60;89.00;;;;;;4924636;28;92189;-87
2023/08/23 00:09:43;;;;;;;114.93;58.45;;;20.70;89.10;;;;;;4935186;28;91750;-87
2023/08/23 00:12:09;;;;;;;114.00;58.92;;;20.60;89.10;;;;;;4925061;28;90987;-87
2023/08/23 00:14:35;;;;;;;113.80;58.40;;;20.60;89.30;;;;;;4943851;28;89542;-87
2023/08/23 00:17:01;;;;;;;112.25;58.20;;;20.60;89.30;;;;;;4922431;28;92720;-87
2023/08/23 00:19:26;;;;;;;112.10;58.10;;;20.60;89.20;;;;;;4927051;28;91709;-87
2023/08/23 00:21:52;;;;;;;112.25;58.03;;;20.50;89.40;;;;;;4921830;28;91655;-87
2023/08/23 00:24:19;;;;;;;114.72;58.20;;;20.50;89.30;;;;;;4923158;28;89267;-87
2023/08/23 00:26:45;;;;;;;114.80;58.03;;;20.50;89.60;;;;;;4927913;28;92543;-86
2023/08/23 00:29:11;;;;;;;112.97;58.35;;;20.50;89.50;;;;;;4927842;28;92547;-86
2023/08/23 00:31:37;;;;;;;113.25;57.97;;;20.40;89.60;;;;;;4926793;28;93149;-87
2023/08/23 00:34:03;;;;;;;111.90;58.05;;;20.40;89.60;;;;;;4942380;28;89231;-87
2023/08/23 00:36:29;;;;;;;110.60;57.65;;;20.40;90.00;;;;;;4942609;28;89780;-87
2023/08/23 00:38:55;;;;;;;112.70;58.20;;;20.40;89.80;;;;;;4923151;28;92281;-87
2023/08/23 00:41:22;;;;;;;110.13;57.85;;;20.30;89.80;;;;;;4929556;28;91531;-87
2023/08/23 00:43:48;;;;;;;113.07;58.47;;;20.30;90.00;;;;;;4943719;28;90215;-87
2023/08/23 00:46:15;;;;;;;111.55;57.97;;;20.30;90.00;;;;;;4931231;28;92762;-87
2023/08/23 00:48:41;;;;;;;111.55;58.17;;;20.30;90.30;;;;;;4927370;28;93344;-87
2023/08/23 00:51:08;;;;;;;111.03;57.65;;;20.20;90.00;;;;;;4943483;28;89213;-87
2023/08/23 00:53:35;;;;;;;112.45;57.88;;;20.20;90.00;;;;;;4923857;28;89266;-87
2023/08/23 00:56:01;;;;;;;111.25;58.15;;;20.20;90.00;;;;;;4944729;28;90280;-86
2023/08/23 00:58:27;;;;;;;113.18;58.42;;;20.20;90.00;;;;;;4944930;28;93538;-87
2023/08/23 01:00:57;;;;;;;111.78;57.90;;;20.10;90.30;;;;;;4927685;28;91596;-86
2023/08/23 01:03:23;;;;;;;110.47;57.75;;;20.10;90.10;;;;;;4939440;28;88960;-87
2023/08/23 01:06:11;;;;;;;111.13;57.40;;;20.10;90.20;;;;;;4943819;28;90037;-87
2023/08/23 01:09:03;;;;;;;111.57;57.83;;;20.10;90.20;;;;;;4941382;28;90859;-86
2023/08/23 01:11:47;;;;;;;112.05;58.20;;;20.10;90.20;;;;;;4918657;28;90276;-86
2023/08/23 01:14:31;;;;;;;109.90;57.40;;;20.00;90.20;;;;;;4925987;28;89083;-87
2023/08/23 01:16:59;;;;;;;113.68;57.78;;;20.00;90.20;;;;;;4924413;28;91572;-86
2023/08/23 01:19:39;;;;;;;113.45;57.60;;;20.00;90.20;;;;;;4929502;28;91282;-87
2023/08/23 01:22:06;;;;;;;111.80;57.67;;;20.00;90.30;;;;;;4925641;28;89868;-86
2023/08/23 01:24:32;;;;;;;111.18;57.40;;;20.00;90.30;;;;;;4927423;28;89369;-86
2023/08/23 01:26:58;;;;;;;110.28;57.42;;;19.90;90.30;;;;;;4931171;28;91932;-86
2023/08/23 01:29:24;;;;;;;110.28;57.38;;;19.90;90.30;;;;;;4932848;28;91498;-87
2023/08/23 01:31:54;;;;;;;111.13;57.28;;;19.90;90.40;;;;;;4926212;28;89270;-87
2023/08/23 01:34:28;;;;;;;109.80;57.88;;;19.90;90.30;;;;;;4938516;28;89824;-86
2023/08/23 01:36:55;;;;;;;110.45;57.92;;;19.80;90.20;;;;;;4943932;28;91163;-87
2023/08/23 01:39:25;;;;;;;110.15;57.55;;;19.80;90.40;;;;;;4929497;28;93617;-86
2023/08/23 01:41:52;;;;;;;111.60;57.35;;;19.80;90.40;;;;;;4925165;28;89251;-87
2023/08/23 01:44:18;;;;;;;110.88;57.55;;;19.80;90.40;;;;;;4950730;28;89079;-87
2023/08/23 01:46:43;;;;;;;111.45;57.72;;;19.70;90.40;;;;;;4940862;28;91176;-87
2023/08/23 01:49:10;;;;;;;110.95;57.42;;;19.80;90.50;;;;;;4923127;28;91736;-87
2023/08/23 01:51:35;;;;;;;109.22;57.30;;;19.70;90.40;;;;;;4939865;28;90813;-87
2023/08/23 01:54:03;;;;;;;110.63;57.90;;;19.70;90.50;;;;;;4931991;28;88164;-87
2023/08/23 01:56:29;;;;;;;109.70;57.78;;;19.70;90.50;;;;;;4956766;28;92381;-87
2023/08/23 01:58:55;;;;;;;110.15;57.45;;;19.60;90.60;;;;;;4930437;28;93324;-87
2023/08/23 02:01:21;;;;;;;110.18;57.55;;;19.60;90.60;;;;;;4939338;28;91624;-86
2023/08/23 02:03:46;;;;;;;109.55;57.58;;;19.60;90.60;;;;;;4929233;28;89813;-87
2023/08/23 02:06:12;;;;;;;109.30;57.00;;;19.60;90.50;;;;;;4944068;28;90556;-87
2023/08/23 02:08:38;;;;;;;109.10;56.95;;;19.60;90.50;;;;;;4943043;28;89983;-86
2023/08/23 02:11:04;;;;;;;111.05;57.38;;;19.50;90.60;;;;;;4962313;28;91184;-86
2023/08/23 02:13:32;;;;;;;109.38;56.90;;;19.50;90.50;;;;;;4940690;28;89512;-86
2023/08/23 02:15:58;;;;;;;109.75;57.22;;;19.50;90.50;;;;;;4945776;28;89163;-86
2023/08/23 02:18:23;;;;;;;109.30;57.13;;;19.40;90.50;;;;;;4936839;28;91415;-86
2023/08/23 02:20:57;;;;;;;109.97;57.35;;;19.40;90.60;;;;;;4929124;28;90222;-86
2023/08/23 02:23:23;;;;;;;111.25;57.33;;;19.40;90.60;;;;;;4926520;28;89160;-86
2023/08/23 02:25:49;;;;;;;109.07;56.72;;;19.40;90.60;;;;;;4927579;28;93404;-86
2023/08/23 02:28:15;;;;;;;108.38;56.85;;;19.40;90.60;;;;;;4945252;28;90149;-87
2023/08/23 02:30:41;;;;;;;109.13;57.47;;;19.40;90.70;;;;;;4936973;28;89172;-86
2023/08/23 02:33:07;;;;;;;108.97;56.90;;;19.30;90.60;;;;;;4924952;28;89238;-87
2023/08/23 02:35:32;;;;;;;108.57;56.90;;;19.30;90.70;;;;;;4939789;28;91054;-86
2023/08/23 02:38:01;;;;;;;109.80;57.15;;;19.30;90.70;;;;;;4928697;28;92610;-86
2023/08/23 02:40:27;;;;;;;109.80;57.13;;;19.20;90.70;;;;;;4939039;28;90583;-86
2023/08/23 02:42:55;;;;;;;107.70;56.42;;;19.20;90.70;;;;;;4929810;28;88842;-86
2023/08/23 02:45:21;;;;;;;108.82;57.05;;;19.20;90.70;;;;;;4936547;28;91864;-89
2023/08/23 02:47:47;;;;;;;108.68;56.95;;;19.20;90.70;;;;;;4940762;28;89889;-89
2023/08/23 02:50:13;;;;;;;109.22;56.88;;;19.20;90.80;;;;;;4924481;28;92067;-89
2023/08/23 02:52:39;;;;;;;109.78;57.03;;;19.20;90.90;;;;;;4942159;28;91768;-89
2023/08/23 02:55:04;;;;;;;110.82;57.63;;;19.10;90.80;;;;;;4936909;28;93846;-87
2023/08/23 02:57:33;;;;;;;108.63;56.72;;;19.10;90.70;;;;;;4957316;28;91322;-87
2023/08/23 03:00:03;;;;;;;108.80;57.25;;;19.10;90.80;;;;;;4954553;28;90322;-87
2023/08/23 03:02:29;;;;;;;109.13;56.80;;;19.10;90.80;;;;;;4941969;28;88846;-87
2023/08/23 03:04:56;;;;;;;109.10;57.13;;;19.10;90.80;;;;;;4928764;28;93745;-87
2023/08/23 03:07:21;;;;;;;108.22;57.15;;;19.10;90.70;;;;;;4926090;28;93392;-87
2023/08/23 03:09:47;;;;;;;108.50;57.10;;;19.00;90.70;;;;;;4927730;28;89739;-87
2023/08/23 03:12:13;;;;;;;108.72;56.95;;;19.00;90.80;;;;;;4922425;28;91062;-87
2023/08/23 03:14:38;;;;;;;110.45;57.00;;;19.00;90.80;;;;;;4959235;28;93661;-87
2023/08/23 03:17:04;;;;;;;108.82;56.70;;;19.00;91.00;;;;;;4940963;28;90183;-87
2023/08/23 03:19:31;;;;;;;109.85;57.33;;;19.00;90.80;;;;;;4940935;28;89127;-87
2023/08/23 03:21:56;;;;;;;108.22;56.60;;;19.00;90.90;;;;;;4928011;28;93853;-87
2023/08/23 03:24:25;;;;;;;107.90;56.42;;;18.90;90.80;;;;;;4947161;28;92031;-87
2023/08/23 03:26:50;;;;;;;109.60;57.22;;;18.90;90.80;;;;;;4917178;28;92604;-87
2023/08/23 03:29:16;;;;;;;107.50;56.78;;;18.90;90.90;;;;;;4927753;28;89309;-87
2023/08/23 03:31:42;;;;;;;109.10;57.08;;;18.90;91.00;;;;;;4926953;28;88636;-87
2023/08/23 03:34:08;;;;;;;107.40;57.08;;;18.90;90.90;;;;;;4935991;28;89601;-86
2023/08/23 03:36:34;;;;;;;108.35;57.05;;;18.90;90.90;;;;;;4922520;28;91448;-87
2023/08/23 03:38:59;;;;;;;107.28;56.25;;;18.90;90.80;;;;;;4919957;28;91974;-87
2023/08/23 03:41:25;;;;;;;107.68;56.78;;;18.90;90.90;;;;;;4942673;28;89590;-87
2023/08/23 03:43:53;;;;;;;108.47;56.75;;;18.80;90.90;;;;;;4936215;28;89522;-86
2023/08/23 03:46:23;;;;;;;108.88;57.03;;;18.90;90.90;;;;;;4918538;28;92981;-87
2023/08/23 03:48:49;;;;;;;108.80;57.08;;;18.80;90.90;;;;;;4920408;28;89902;-87
2023/08/23 03:51:15;;;;;;;110.10;57.00;;;18.80;90.90;;;;;;4929771;28;89905;-87
2023/08/23 03:53:41;;;;;;;108.13;57.38;;;18.80;90.90;;;;;;4935764;28;90731;-87
2023/08/23 03:56:08;;;;;;;108.03;56.42;;;18.80;90.90;;;;;;4944531;28;90044;-87
2023/08/23 03:58:34;;;;;;;108.78;57.10;;;18.80;90.90;;;;;;4925218;28;90460;-87
2023/08/23 04:01:00;;;;;;;109.38;57.00;;;18.80;90.80;;;;;;4929260;28;89287;-87
2023/08/23 04:03:26;;;;;;;109.13;56.63;;;18.70;90.90;;;;;;4925291;28;93283;-87
2023/08/23 04:05:54;;;;;;;108.85;57.15;;;18.70;90.90;;;;;;4924049;28;92626;-87
2023/08/23 04:08:20;;;;;;;107.90;56.47;;;18.70;91.00;;;;;;4927004;28;91606;-87
2023/08/23 04:10:49;;;;;;;107.07;56.63;;;18.70;90.90;;;;;;4938854;28;90076;-87
2023/08/23 04:13:16;;;;;;;109.68;57.17;;;18.70;90.90;;;;;;4939403;28;89954;-86
2023/08/23 04:15:42;;;;;;;107.70;56.92;;;18.70;90.90;;;;;;4944793;28;89568;-87
2023/08/23 04:18:11;;;;;;;107.53;56.72;;;18.70;91.00;;;;;;4931652;28;93705;-86
2023/08/23 04:20:37;;;;;;;108.43;56.72;;;18.70;91.10;;;;;;4950760;28;88675;-87
2023/08/23 04:23:04;;;;;;;107.47;56.53;;;18.70;91.10;;;;;;4944109;28;90202;-86
2023/08/23 04:25:30;;;;;;;108.57;56.83;;;18.70;90.90;;;;;;4932974;28;91880;-86
2023/08/23 04:27:58;;;;;;;107.38;56.50;;;18.70;90.90;;;;;;4944310;28;91195;-86
2023/08/23 04:30:24;;;;;;;109.40;56.63;;;18.60;90.90;;;;;;4925616;28;89278;-86
2023/08/23 04:32:49;;;;;;;107.07;56.33;;;18.60;90.80;;;;;;4940771;28;91741;-87
2023/08/23 04:35:15;;;;;;;108.13;56.67;;;18.70;91.30;;;;;;4931805;28;92848;-85
2023/08/23 04:37:41;;;;;;;106.97;56.30;;;18.60;91.20;;;;;;4960034;22;90026;-46
2023/08/23 04:40:07;;;;;;;108.53;56.22;;;18.60;91.50;;;;;;4922862;28;92036;-46
2023/08/23 04:42:33;;;;;;;108.25;56.45;;;18.60;94.70;;;;;;4944144;28;90870;-45
2023/08/23 04:45:00;;;;;;;108.63;57.40;;;18.80;96.90;;;;;;4941981;28;90255;-46
2023/08/23 04:47:30;;;;;;;110.15;57.20;;;18.70;95.90;;;;;;4946225;28;89574;-46
2023/08/23 04:49:55;;;;;;;107.72;56.88;;;18.70;93.70;;;;;;4939680;28;90152;-48
2023/08/23 04:52:21;;;;;;;110.75;56.78;;;18.60;92.40;;;;;;4944728;28;91370;-49
2023/08/23 04:54:47;;;;;;;107.85;56.97;;;18.60;91.70;;;;;;4938001;28;91395;-49
2023/08/23 04:57:12;;;;;;;109.65;57.03;;;18.50;91.00;;;;;;4925404;28;90017;-47
2023/08/23 04:59:38;;;;;;;110.93;57.22;;;18.50;90.70;;;;;;4939279;28;90639;-46
2023/08/23 05:02:04;;;;;;;107.55;56.60;;;18.40;90.40;;;;;;4949000;28;90902;-46
2023/08/23 05:04:30;;;;;;;108.82;56.65;;;18.40;90.30;;;;;;4933371;28;91531;-48
2023/08/23 05:06:55;;;;;;;110.80;56.53;;;18.30;90.10;;;;;;4943668;28;91461;-46
2023/08/23 05:09:21;;;;;;;108.93;56.75;;;18.30;90.00;;;;;;4941081;28;90928;-48
2023/08/23 05:11:47;;;;;;;107.40;56.22;;;18.20;89.80;;;;;;4945683;28;91128;-46
2023/08/23 05:14:12;;;;;;;110.22;56.72;;;18.20;90.00;;;;;;4940460;28;90784;-45
2023/08/23 05:16:38;;;;;;;107.53;56.55;;;18.20;90.00;;;;;;4943776;28;91036;-45
2023/08/23 05:19:04;;;;;;;107.30;56.33;;;18.20;90.10;;;;;;4945753;28;92327;-45
2023/08/23 05:21:29;;;;;;;107.85;56.72;;;18.20;90.40;;;;;;4939586;28;91202;-46
2023/08/23 05:23:55;;;;;;;110.03;56.53;;;18.10;90.50;;;;;;4946207;28;91519;-50
2023/08/23 05:26:21;;;;;;;106.65;55.55;;;18.10;90.70;;;;;;4945636;28;90466;-46
2023/08/23 05:28:47;;;;;;;106.47;55.97;;;18.00;90.80;;;;;;4944383;28;91633;-50
2023/08/23 05:31:12;;;;;;;106.30;55.85;;;18.00;91.20;;;;;;4941623;28;90139;-47
2023/08/23 05:33:39;;;;;;;107.60;55.88;;;18.00;91.40;;;;;;4948530;28;90853;-48
2023/08/23 05:36:05;;;;;;;108.10;55.47;;;18.00;91.50;;;;;;4940940;28;92505;-47
2023/08/23 05:38:30;;;;;;;106.35;55.42;;;18.00;91.50;;;;;;4949307;28;89850;-48
2023/08/23 05:40:56;;;;;;;105.68;55.47;;;18.00;91.50;;;;;;4942270;28;91407;-48
2023/08/23 05:43:22;;;;;;;107.22;55.75;;;18.00;91.50;;;;;;4946716;28;90976;-46
2023/08/23 05:45:50;;;;;;;107.32;55.47;;;18.00;91.50;;;;;;4943178;28;91744;-50
2023/08/23 05:48:16;;;;;;;107.22;55.58;;;18.00;91.50;;;;;;4944824;28;89691;-47
2023/08/23 05:50:42;;;;;;;107.78;55.67;;;18.10;91.80;;;;;;4945514;28;90054;-46
2023/08/23 05:53:18;;;;;;;107.53;55.67;;;18.10;91.40;;;;;;4938543;28;89804;-48
2023/08/23 05:55:45;;;;;;;107.22;55.95;;;18.10;91.30;;;;;;4945665;28;90170;-49
2023/08/23 05:58:11;;;;;;;106.72;55.17;;;18.10;91.30;;;;;;4940490;28;89721;-51
2023/08/23 06:00:37;;;;;;;106.55;55.35;;;18.10;91.30;;;;;;4930887;28;91884;-45
2023/08/23 06:03:02;;;;;;;107.00;55.72;;;18.20;91.40;;;;;;4939367;28;91352;-46
2023/08/23 06:05:28;;;;;;;106.30;55.58;;;18.20;91.20;;;;;;4949893;28;90576;-46
2023/08/23 06:07:53;;;;;;;107.93;56.10;;;18.20;91.20;;;;;;4940291;28;90792;-48
2023/08/23 06:10:19;;;;;;;106.45;55.90;;;18.20;91.10;;;;;;4945762;28;93807;-46
2023/08/23 06:12:45;;;;;;;107.57;56.25;;;18.20;91.10;;;;;;4952110;28;90072;-49
2023/08/23 06:15:10;;;;;;;107.72;56.05;;;18.20;91.00;;;;;;4940898;28;90729;-51
2023/08/23 06:17:36;;;;;;;106.50;56.08;;;18.30;91.00;;;;;;4946246;28;89837;-48
2023/08/23 06:20:04;;;;;;;107.90;56.08;;;18.30;90.90;;;;;;4941615;28;92106;-50
2023/08/23 06:22:30;;;;;;;106.95;56.10;;;18.40;90.80;;;;;;4946654;28;88973;-47
2023/08/23 06:24:55;;;;;;;105.80;55.58;;;18.30;90.80;;;;;;4944392;28;91956;-47
2023/08/23 06:27:21;;;;;;;107.28;56.05;;;18.40;90.70;;;;;;4950448;28;92389;-50
2023/08/23 06:29:47;;;;;;;107.50;56.25;;;18.40;90.60;;;;;;4941584;28;93011;-50
2023/08/23 06:32:12;;;;;;;109.28;55.75;;;18.50;90.50;;;;;;4946733;28;90706;-46
2023/08/23 06:34:39;;;;;;;110.53;56.83;;;18.50;90.60;;;;;;4944408;28;90618;-48
2023/08/23 06:37:05;;;;;;;109.70;56.03;;;18.60;90.50;;;;;;4945678;28;95520;-46
2023/08/23 06:39:30;;;;;;;106.68;55.90;;;18.60;90.30;;;;;;4942823;28;90733;-46
2023/08/23 06:41:56;;;;;;;107.30;56.17;;;18.60;90.30;;;;;;4940183;28;95153;-46
2023/08/23 06:44:22;;;;;;;108.97;56.80;;;18.60;90.30;;;;;;4939553;28;89854;-47
2023/08/23 06:46:47;;;;;;;108.30;56.25;;;18.70;90.40;;;;;;4941452;28;91626;-46
2023/08/23 06:49:13;;;;;;;107.63;56.15;;;18.80;90.20;;;;;;4945136;28;91329;-48
2023/08/23 06:51:39;;;;;;;107.38;56.30;;;18.80;90.30;;;;;;4942777;28;90026;-46
2023/08/23 06:54:04;;;;;;;108.35;56.28;;;18.80;90.20;;;;;;4947048;28;93389;-46
2023/08/23 06:56:30;;;;;;;107.78;56.50;;;18.80;90.00;;;;;;4940248;28;92007;-48
2023/08/23 06:58:56;;;;;;;107.53;55.95;;;18.80;90.10;;;;;;4944290;28;90289;-48
2023/08/23 07:01:21;;;;;;;107.78;56.50;;;18.80;90.50;;;;;;4938631;28;92523;-47
2023/08/23 07:03:47;;;;;;;108.85;56.20;;;18.90;90.00;;;;;;4943999;28;89876;-47
2023/08/23 07:06:14;;;;;;;108.90;56.20;;;18.90;90.10;;;;;;4940625;28;92401;-46
2023/08/23 07:08:41;;;;;;;107.38;55.85;;;19.00;89.90;;;;;;4946698;28;91841;-46
2023/08/23 07:11:08;;;;;;;108.18;55.92;;;19.00;90.00;;;;;;4939455;28;91064;-47
2023/08/23 07:13:35;;;;;;;108.93;56.00;;;19.10;90.20;;;;;;4940292;28;91690;-46
2023/08/23 07:16:00;;;;;;;108.53;55.70;;;19.20;90.40;;;;;;4939526;28;91268;-45
2023/08/23 07:18:26;;;;;;;108.40;56.10;;;19.20;90.00;;;;;;4937246;28;91065;-48
2023/08/23 07:20:52;;;;;;;107.28;55.67;;;19.30;90.10;;;;;;4936705;28;92797;-46
2023/08/23 07:23:17;;;;;;;107.82;55.63;;;19.30;89.90;;;;;;4937158;28;90859;-47
2023/08/23 07:25:44;;;;;;;109.05;56.15;;;19.30;89.80;;;;;;4944427;28;89491;-45
2023/08/23 07:28:11;;;;;;;107.72;55.85;;;19.40;89.70;;;;;;4923582;28;91427;-47
2023/08/23 07:30:37;;;;;;;108.47;56.03;;;19.40;89.40;;;;;;4938806;28;91465;-46
2023/08/23 07:33:03;;;;;;;107.97;56.20;;;19.40;88.90;;;;;;4934873;28;94432;-45
2023/08/23 07:35:29;;;;;;;109.45;56.55;;;19.50;89.30;;;;;;4928925;28;93894;-46
2023/08/23 07:37:55;;;;;;;108.82;56.50;;;19.50;88.60;;;;;;4947491;28;90287;-52
2023/08/23 07:40:20;;;;;;;107.63;56.10;;;19.50;88.20;;;;;;4934499;28;90223;-47
2023/08/23 07:42:46;;;;;;;108.57;55.95;;;19.50;89.80;;;;;;4936914;28;91882;-49
2023/08/23 07:45:12;;;;;;;109.38;56.35;;;19.60;89.60;;;;;;4935420;28;91375;-54
2023/08/23 07:47:37;;;;;;;109.30;55.95;;;19.70;89.50;;;;;;4937546;28;90419;-48
2023/08/23 07:50:03;;;;;;;108.25;56.13;;;19.70;89.40;;;;;;4927806;28;96184;-52
2023/08/23 07:52:29;;;;;;;115.70;56.00;;;19.80;88.90;;;;;;4943105;28;95014;-45
2023/08/23 07:54:55;;;;;;;110.70;56.08;;;19.80;88.80;;;;;;4941869;28;90509;-46
2023/08/23 07:57:20;;;;;;;107.45;55.53;;;19.90;90.40;;;;;;4948481;28;91530;-46
2023/08/23 07:59:46;;;;;;;108.18;55.63;;;19.90;88.90;;;;;;4938214;28;89187;-46
2023/08/23 08:02:12;;;;;;;110.50;56.63;;;20.00;90.40;;;;;;4931702;28;93933;-46
2023/08/23 08:04:37;;;;;;;111.00;57.03;;;20.00;87.30;;;;;;4941154;28;89609;-45
2023/08/23 08:07:03;;;;;;;108.90;56.10;;;20.00;86.90;;;;;;4927123;28;91358;-49
2023/08/23 08:09:29;;;;;;;108.63;55.83;;;20.10;90.30;;;;;;4945521;28;93736;-46
2023/08/23 08:11:55;;;;;;;109.55;55.97;;;20.20;90.60;;;;;;4938383;28;94344;-48
2023/08/23 08:14:21;;;;;;;112.18;56.28;;;20.30;88.80;;;;;;4937412;28;90371;-45
2023/08/23 08:16:46;;;;;;;111.20;57.22;;;20.20;87.30;;;;;;4939784;28;94177;-47
2023/08/23 08:19:12;;;;;;;110.63;56.90;;;20.20;86.40;;;;;;4935698;28;89944;-48
2023/08/23 08:21:40;;;;;;;110.95;56.38;;;20.30;86.80;;;;;;4922183;28;89943;-49
2023/08/23 08:24:07;;;;;;;109.68;56.78;;;20.30;87.40;;;;;;4942688;28;89418;-48
2023/08/23 08:26:34;;;;;;;125.82;57.10;;;20.30;86.60;;;;;;4938100;28;90805;-48
2023/08/23 08:29:00;;;;;;;110.72;56.38;;;20.40;86.60;;;;;;4941647;28;90064;-52
2023/08/23 08:31:25;;;;;;;109.70;56.15;;;20.40;86.10;;;;;;4935446;28;92622;-52
2023/08/23 08:33:51;;;;;;;108.88;56.03;;;20.40;87.00;;;;;;4935856;28;90026;-48
2023/08/23 08:36:17;;;;;;;110.70;56.17;;;20.50;86.40;;;;;;4936722;28;91711;-44
2023/08/23 08:38:43;;;;;;;111.25;56.40;;;20.50;87.10;;;;;;4932750;28;90701;-54
2023/08/23 08:41:09;;;;;;;112.05;56.05;;;20.60;86.30;;;;;;4924712;28;90445;-46
2023/08/23 08:43:37;;;;;;;110.18;56.00;;;20.70;90.30;;;;;;4915345;28;90068;-44
2023/08/23 08:46:08;;;;;;;111.07;56.17;;;20.80;90.10;;;;;;4924707;28;92700;-46
2023/08/23 08:48:34;;;;;;;110.53;56.35;;;20.80;86.90;;;;;;4923037;28;90083;-49
2023/08/23 08:51:02;;;;;;;110.40;56.17;;;20.80;84.60;;;;;;4918768;28;91192;-47
2023/08/23 08:53:30;;;;;;;111.43;56.35;;;20.80;87.30;;;;;;4935451;28;89752;-51
2023/08/23 08:55:56;;;;;;;109.65;56.15;;;20.90;84.30;;;;;;4939237;28;91932;-47
2023/08/23 08:58:24;;;;;;;111.05;56.17;;;20.90;85.50;;;;;;4933411;28;91326;-46
2023/08/23 09:00:52;;;;;;;111.78;56.60;;;21.00;89.90;;;;;;4942519;28;89924;-46
2023/08/23 09:03:19;;;;;;;110.13;56.53;;;21.10;89.50;;;;;;4942740;28;89964;-50
2023/08/23 09:05:48;;;;;;;110.78;56.63;;;21.20;84.20;;;;;;4939548;28;93264;-47
2023/08/23 09:08:14;;;;;;;110.13;56.40;;;21.10;83.70;;;;;;4939242;28;90591;-44
2023/08/23 09:10:40;;;;;;;109.63;56.10;;;21.20;85.40;;;;;;4936321;28;91371;-56
2023/08/23 09:13:06;;;;;;;112.63;56.72;;;21.30;89.90;;;;;;4943581;28;90180;-45
2023/08/23 09:15:31;;;;;;;110.93;56.33;;;21.40;88.80;;;;;;4941503;28;94546;-45
2023/08/23 09:17:57;;;;;;;112.43;56.40;;;21.50;86.60;;;;;;4934099;28;91850;-45
2023/08/23 09:20:23;;;;;;;110.40;56.20;;;21.50;85.90;;;;;;4943570;28;92018;-46
2023/08/23 09:22:52;;;;;;;110.20;56.17;;;21.50;84.70;;;;;;4934640;28;90586;-46
2023/08/23 09:25:18;;;;;;;111.07;56.35;;;21.60;85.10;;;;;;4939464;28;90413;-45
2023/08/23 09:27:44;;;;;;;111.85;56.97;;;21.60;82.90;;;;;;4936415;28;91038;-47
2023/08/23 09:30:12;;;;;;;110.28;56.70;;;21.60;84.30;;;;;;4943481;28;91289;-49
2023/08/23 09:32:39;;;;;;;111.15;56.40;;;21.60;83.10;;;;;;4937275;28;89833;-53
2023/08/23 09:35:14;;;;;;;110.80;56.75;;;21.80;85.10;;;;;;4942416;28;94516;-48
2023/08/23 09:37:45;;;;;;;110.65;56.85;;;21.80;82.00;;;;;;4941195;28;89276;-46
2023/08/23 09:40:18;;;;;;;111.43;56.70;;;21.80;82.90;;;;;;4935749;28;93601;-45
2023/08/23 09:42:44;;;;;;;111.13;56.78;;;21.80;81.80;;;;;;4938995;28;90066;-50
2023/08/23 09:45:16;;;;;;;111.93;56.25;;;21.90;83.40;;;;;;4936015;28;96305;-52
2023/08/23 09:47:49;;;;;;;111.43;56.72;;;22.00;84.00;;;;;;4941120;28;91606;-46
2023/08/23 09:50:16;;;;;;;110.57;56.45;;;22.00;87.40;;;;;;4935768;28;90102;-47
2023/08/23 09:52:44;;;;;;;110.18;56.42;;;22.10;82.70;;;;;;4939988;28;90729;-48
2023/08/23 09:55:14;;;;;;;112.18;56.97;;;22.10;81.70;;;;;;4937701;28;90417;-46
2023/08/23 09:57:41;;;;;;;111.70;57.03;;;22.20;84.10;;;;;;4944456;28;89962;-50
2023/08/23 10:00:08;;;;;;;111.63;56.72;;;22.20;85.60;;;;;;4933931;28;90355;-46
2023/08/23 10:02:33;;;;;;;113.53;57.17;;;22.30;86.20;;;;;;4936348;28;93594;-48
2023/08/23 10:05:00;;;;;;;112.53;56.95;;;22.40;82.90;;;;;;4943294;28;90769;-51
2023/08/23 10:07:26;;;;;;;116.57;57.97;;;22.40;80.80;;;;;;4941368;28;90056;-53
2023/08/23 10:09:52;;;;;;;110.93;56.70;;;22.40;83.30;;;;;;4939370;28;92213;-55
2023/08/23 10:12:19;;;;;;;114.55;57.28;;;22.40;80.40;;;;;;4946599;28;90127;-48
2023/08/23 10:14:48;;;;;;;115.65;57.63;;;22.50;80.30;;;;;;4935810;28;93461;-46
2023/08/23 10:17:18;;;;;;;114.88;58.03;;;22.50;81.40;;;;;;4941014;28;95038;-48
2023/08/23 10:19:47;;;;;;;115.55;58.08;;;22.50;83.40;;;;;;4935699;28;90902;-47
2023/08/23 10:22:13;;;;;;;118.82;58.15;;;22.60;84.50;;;;;;4942102;28;89960;-51
2023/08/23 10:24:40;;;;;;;118.28;58.00;;;22.70;85.70;;;;;;4924796;28;90003;-44
2023/08/23 10:27:09;;;;;;;113.53;57.25;;;22.70;81.60;;;;;;4938682;28;91138;-49
2023/08/23 10:29:37;;;;;;;117.10;58.25;;;22.70;79.60;;;;;;4941042;28;90799;-49
2023/08/23 10:32:11;;;;;;;117.80;58.40;;;22.70;81.40;;;;;;4939119;28;89917;-45
2023/08/23 10:34:39;;;;;;;114.30;57.75;;;22.80;82.40;;;;;;4940243;28;90764;-46
2023/08/23 10:37:19;;;;;;;117.38;58.13;;;22.80;80.90;;;;;;4944578;28;89615;-46
2023/08/23 10:39:46;;;;;;;118.68;58.17;;;22.90;84.90;;;;;;4941427;28;90750;-46
2023/08/23 10:42:12;;;;;;;117.90;58.38;;;23.00;83.40;;;;;;4947733;28;89565;-45
2023/08/23 10:44:59;;;;;;;119.22;58.00;;;23.00;82.80;;;;;;4923620;28;94020;-45
2023/08/23 10:47:26;;;;;;;115.20;58.00;;;23.00;82.60;;;;;;4939502;28;90241;-45
2023/08/23 10:49:52;;;;;;;114.78;58.10;;;23.20;84.10;;;;;;4939442;28;90165;-47
2023/08/23 10:52:20;;;;;;;116.40;58.33;;;23.20;80.10;;;;;;4937958;28;93927;-45
2023/08/23 10:54:46;;;;;;;114.03;58.30;;;23.20;82.20;;;;;;4944432;28;90864;-46
2023/08/23 10:57:12;;;;;;;113.80;57.90;;;23.20;80.50;;;;;;4936583;28;91142;-46
2023/08/23 10:59:38;;;;;;;119.00;59.03;;;23.20;78.40;;;;;;4941043;28;91235;-46
2023/08/23 11:02:03;;;;;;;116.35;58.55;;;23.20;80.90;;;;;;4932008;28;90669;-48
2023/08/23 11:04:30;;;;;;;117.78;58.40;;;23.30;80.00;;;;;;4944619;28;90203;-50
2023/08/23 11:06:56;;;;;;;115.70;58.53;;;23.30;80.60;;;;;;4942590;28;93042;-48
2023/08/23 11:09:22;;;;;;;117.80;58.83;;;23.40;80.00;;;;;;4944661;28;91687;-50
2023/08/23 11:11:48;;;;;;;114.75;58.17;;;23.40;81.70;;;;;;4940734;28;91798;-48
2023/08/23 11:14:13;;;;;;;117.18;58.53;;;23.50;79.20;;;;;;4945326;28;92744;-49
2023/08/23 11:16:39;;;;;;;114.70;58.28;;;23.60;83.10;;;;;;4943341;28;92799;-49
2023/08/23 11:19:06;;;;;;;117.22;58.47;;;23.70;80.60;;;;;;4933671;28;89853;-49
2023/08/23 11:21:32;;;;;;;116.47;58.42;;;23.70;80.10;;;;;;4937574;28;93491;-47
2023/08/23 11:24:03;;;;;;;119.13;58.95;;;23.70;78.60;;;;;;4946354;28;91170;-50
2023/08/23 11:26:36;;;;;;;117.82;58.80;;;23.70;80.30;;;;;;4939953;28;90221;-47
2023/08/23 11:29:05;;;;;;;117.55;58.53;;;23.80;80.40;;;;;;4940938;28;93575;-48
2023/08/23 11:31:35;;;;;;;120.57;58.95;;;23.80;77.90;;;;;;4933897;28;91890;-48
2023/08/23 11:34:08;;;;;;;117.15;58.60;;;23.90;82.20;;;;;;4940756;28;90006;-47
2023/08/23 11:36:36;;;;;;;116.25;58.35;;;23.90;77.30;;;;;;4936826;28;92076;-48
2023/08/23 11:39:04;;;;;;;115.82;58.15;;;23.90;76.40;;;;;;4941173;28;90066;-51
2023/08/23 11:41:33;;;;;;;117.90;59.38;;;23.90;76.00;;;;;;4942159;28;90597;-51
2023/08/23 11:44:02;;;;;;;113.88;58.13;;;23.90;80.70;;;;;;4942339;28;91623;-54
2023/08/23 11:46:28;;;;;;;115.70;58.47;;;23.90;76.20;;;;;;4936721;28;90254;-48
2023/08/23 11:48:54;;;;;;;118.57;58.63;;;24.00;79.10;;;;;;4936304;28;91529;-52
2023/08/23 11:51:20;;;;;;;117.03;58.78;;;24.10;79.70;;;;;;4945169;28;90715;-48
2023/08/23 11:53:55;;;;;;;114.00;57.70;;;24.10;79.90;;;;;;4938600;28;90760;-46
2023/08/23 11:56:21;;;;;;;116.35;58.38;;;24.20;65.90;;;;;;4936934;28;90816;-48
2023/08/23 11:58:47;;;;;;;116.90;58.60;;;24.30;71.40;;;;;;4939968;28;90159;-45
2023/08/23 12:01:13;;;;;;;116.65;57.83;;;24.40;71.90;;;;;;4932647;28;90369;-45
2023/08/23 12:03:39;;;;;;;115.18;58.33;;;24.40;67.90;;;;;;4942990;28;90165;-46
2023/08/23 12:06:04;;;;;;;115.57;58.38;;;24.50;65.80;;;;;;4934872;28;90242;-45
2023/08/23 12:08:30;;;;;;;114.60;57.97;;;24.60;67.60;;;;;;4942546;28;90147;-49
2023/08/23 12:10:56;;;;;;;117.15;58.53;;;24.60;65.00;;;;;;4938604;28;91012;-45
2023/08/23 12:13:21;;;;;;;118.05;58.88;;;24.70;63.50;;;;;;4938001;28;92235;-44
2023/08/23 12:15:47;;;;;;;115.30;58.20;;;24.70;66.30;;;;;;4936208;28;90923;-44
2023/08/23 12:18:12;;;;;;;115.78;58.80;;;24.70;61.70;;;;;;4937402;28;89939;-46